createdAt,value
2018-12-26T00:00:29.989Z,103155.81
2018-12-26T00:01:33.288Z,103150.55
2018-12-26T00:02:36.873Z,103154.09
2018-12-26T00:04:42.664Z,103155.45
2018-12-26T00:05:45.934Z,103154.55
2018-12-26T00:06:49.592Z,103151.47
2018-12-26T00:12:02.479Z,103151.06
2018-12-26T00:13:05.719Z,103154.65
2018-12-26T00:16:13.816Z,103147.63
2018-12-26T00:18:19.480Z,103137.88
2018-12-26T00:20:27.342Z,103140.09
2018-12-26T00:21:30.581Z,103142.31
2018-12-26T00:22:33.813Z,103137.05
2018-12-26T00:23:37.088Z,103140.59
2018-12-26T00:24:40.388Z,103140.61
2018-12-26T00:26:46.041Z,103132.67
2018-12-26T00:28:52.097Z,103129.56
2018-12-26T00:30:57.732Z,103129.58
2018-12-26T00:33:03.383Z,103131.78
2018-12-26T00:35:09.134Z,103131.37
2018-12-26T00:36:12.621Z,103129.64
2018-12-26T00:38:18.360Z,103136.28
2018-12-26T00:39:21.636Z,103129.26
2018-12-26T00:40:25.118Z,103133.64
2018-12-26T00:41:28.405Z,103134.08
2018-12-26T00:42:31.700Z,103134.52
2018-12-26T00:44:37.448Z,103137.66
2018-12-26T00:45:40.833Z,103134.56
2018-12-26T00:48:48.940Z,103131.03
2018-12-26T00:52:59.511Z,103136.84
2018-12-26T00:54:02.805Z,103104.25
2018-12-26T00:59:15.727Z,103141.28
2018-12-26T01:00:18.924Z,103143.95
2018-12-26T01:01:22.178Z,103137.31
2018-12-26T01:02:25.488Z,103139.52
2018-12-26T01:03:28.756Z,103139.53
2018-12-26T01:05:34.439Z,103137.77
2018-12-26T01:07:40.371Z,103139.12
2018-12-26T01:08:43.648Z,103140.88
2018-12-26T01:11:51.675Z,103132.05
2018-12-26T01:12:54.941Z,103134.70
2018-12-26T01:13:58.133Z,103131.16
2018-12-26T01:16:04.069Z,103136.97
2018-12-26T01:17:07.349Z,103136.98
2018-12-26T01:18:10.539Z,103139.20
2018-12-26T01:19:13.803Z,103144.06
2018-12-26T01:20:17.087Z,103136.11
2018-12-26T01:21:20.372Z,103139.20
2018-12-26T01:23:26.229Z,103140.09
2018-12-26T01:24:29.437Z,103140.53
2018-12-26T01:27:37.496Z,103141.87
2018-12-26T01:33:52.913Z,103135.70
2018-12-26T01:34:56.110Z,103136.62
2018-12-26T01:38:04.200Z,103132.22
2018-12-26T01:39:07.487Z,103121.63
2018-12-26T01:41:13.161Z,103135.77
2018-12-26T01:43:18.988Z,103131.34
2018-12-26T01:46:27.090Z,103129.58
2018-12-26T01:47:30.280Z,103130.46
2018-12-26T01:49:36.005Z,103130.91
2018-12-26T01:51:41.637Z,103128.28
2018-12-26T01:54:49.768Z,103117.26
2018-12-26T01:56:55.399Z,103124.34
2018-12-26T02:00:05.478Z,103126.12
2018-12-26T02:01:08.752Z,103121.25
2018-12-26T02:02:12.156Z,103118.18
2018-12-26T02:04:17.784Z,103117.73
2018-12-26T02:07:25.846Z,103119.06
2018-12-26T02:08:29.067Z,103123.05
2018-12-26T02:09:32.348Z,103116.85
2018-12-26T02:10:35.555Z,103115.09
2018-12-26T02:11:38.812Z,103117.30
2018-12-26T02:12:42.007Z,103114.21
2018-12-26T02:14:47.748Z,103119.09
2018-12-26T02:15:50.935Z,103117.76
2018-12-26T02:16:54.193Z,103120.86
2018-12-26T02:18:59.840Z,103123.95
2018-12-26T02:20:04.806Z,103124.84
2018-12-26T02:22:10.510Z,103121.79
2018-12-26T02:25:18.543Z,103119.16
2018-12-26T02:26:21.813Z,103122.25
2018-12-26T02:32:37.218Z,103119.59
2018-12-26T02:34:42.951Z,103110.76
2018-12-26T02:37:51.074Z,103109.89
2018-12-26T02:39:56.820Z,103101.03
2018-12-26T02:43:04.926Z,103089.53
2018-12-26T02:48:17.859Z,103096.23
2018-12-26T02:50:23.714Z,103093.59
2018-12-26T02:51:27.189Z,103093.59
2018-12-26T02:53:32.936Z,103090.94
2018-12-26T02:54:36.337Z,103090.95
2018-12-26T02:57:44.736Z,103086.06
2018-12-26T03:00:52.783Z,103081.63
2018-12-26T03:01:56.025Z,103077.64
2018-12-26T03:02:59.309Z,103084.73
2018-12-26T03:05:05.458Z,103077.22
2018-12-26T03:06:08.737Z,103074.56
2018-12-26T03:11:21.635Z,103078.98
2018-12-26T03:13:27.327Z,103076.34
2018-12-26T03:18:40.347Z,103058.25
2018-12-26T03:19:43.857Z,103059.58
2018-12-26T03:20:47.145Z,103056.05
2018-12-26T03:21:50.413Z,103050.73
2018-12-26T03:24:58.525Z,103036.14
2018-12-26T03:29:09.099Z,103039.73
2018-12-26T03:30:12.372Z,103045.91
2018-12-26T03:31:15.657Z,103044.13
2018-12-26T03:32:19.153Z,103040.13
2018-12-26T03:35:27.469Z,103033.95
2018-12-26T03:36:30.752Z,103039.71
2018-12-26T03:38:36.404Z,103037.07
2018-12-26T03:39:39.591Z,103039.28
2018-12-26T03:41:45.307Z,103041.05
2018-12-26T03:43:50.981Z,103041.05
2018-12-26T03:48:01.540Z,103038.40
2018-12-26T03:49:04.826Z,103006.37
2018-12-26T03:50:08.105Z,103032.70
2018-12-26T03:51:11.330Z,103031.38
2018-12-26T03:55:21.864Z,103021.65
2018-12-26T03:57:27.620Z,103022.55
2018-12-26T03:58:30.892Z,103020.77
2018-12-26T04:00:36.744Z,103024.30
2018-12-26T04:02:42.359Z,103025.20
2018-12-26T04:03:45.579Z,103024.77
2018-12-26T04:04:48.849Z,102998.84
2018-12-26T04:06:54.802Z,103021.67
2018-12-26T04:09:00.577Z,103019.47
2018-12-26T04:10:04.037Z,103022.13
2018-12-26T04:11:07.456Z,103020.37
2018-12-26T04:12:10.913Z,103024.34
2018-12-26T04:13:14.114Z,103018.64
2018-12-26T04:15:19.841Z,103022.63
2018-12-26T04:18:28.151Z,103023.95
2018-12-26T04:19:31.365Z,103026.17
2018-12-26T04:22:39.524Z,103024.39
2018-12-26T04:24:45.194Z,103019.10
2018-12-26T04:25:48.468Z,103018.66
2018-12-26T04:26:51.753Z,103012.48
2018-12-26T04:28:57.371Z,103017.78
2018-12-26T04:30:00.581Z,103021.77
2018-12-26T04:31:03.864Z,103016.91
2018-12-26T04:32:07.257Z,103022.21
2018-12-26T04:33:10.529Z,103020.89
2018-12-26T04:34:13.844Z,103027.52
2018-12-26T04:36:19.559Z,103021.78
2018-12-26T04:40:30.116Z,103023.55
2018-12-26T04:43:38.244Z,103025.78
2018-12-26T04:45:43.969Z,103023.56
2018-12-26T04:46:47.260Z,103029.31
2018-12-26T04:48:52.900Z,103027.15
2018-12-26T04:53:03.400Z,103025.82
2018-12-26T04:58:16.614Z,103020.53
2018-12-26T05:06:36.836Z,103034.25
2018-12-26T05:07:40.124Z,103026.74
2018-12-26T05:09:45.794Z,103034.70
2018-12-26T05:11:51.520Z,103029.40
2018-12-26T05:12:54.911Z,103025.41
2018-12-26T05:13:58.107Z,103024.52
2018-12-26T05:27:34.288Z,103031.67
2018-12-26T05:29:38.440Z,103037.43
2018-12-26T05:30:41.711Z,103035.66
2018-12-26T05:32:47.443Z,103040.03
2018-12-26T05:36:58.031Z,103030.80
2018-12-26T05:40:08.480Z,103038.33
2018-12-26T05:41:11.790Z,103034.78
2018-12-26T05:46:24.813Z,103038.33
2018-12-26T05:49:32.923Z,103034.37
2018-12-26T05:50:36.194Z,103037.45
2018-12-26T05:51:39.397Z,103035.69
2018-12-26T05:52:42.605Z,103037.90
2018-12-26T05:57:55.556Z,103039.69
2018-12-26T05:58:59.089Z,103034.88
2018-12-26T06:00:03.138Z,103041.50
2018-12-26T06:01:06.484Z,103039.25
2018-12-26T06:05:17.140Z,103046.33
2018-12-26T06:06:20.340Z,103049.47
2018-12-26T06:09:28.457Z,103051.64
2018-12-26T06:11:34.181Z,103052.58
2018-12-26T06:12:37.382Z,103055.23
2018-12-26T06:15:45.477Z,103056.99
2018-12-26T06:19:56.052Z,102987.20
2018-12-26T06:20:59.275Z,103063.65
2018-12-26T06:22:02.488Z,103065.41
2018-12-26T06:24:08.163Z,103059.67
2018-12-26T06:28:18.732Z,103063.66
2018-12-26T06:30:24.363Z,103064.11
2018-12-26T06:32:30.008Z,103071.19
2018-12-26T06:33:33.308Z,103070.73
2018-12-26T06:34:36.594Z,103066.32
2018-12-26T06:36:42.329Z,103063.27
2018-12-26T06:37:45.533Z,103065.44
2018-12-26T06:38:48.801Z,103067.65
2018-12-26T06:40:54.489Z,103066.77
2018-12-26T06:44:02.653Z,103057.96
2018-12-26T06:46:08.299Z,103058.85
2018-12-26T06:47:11.593Z,103063.28
2018-12-26T06:48:14.868Z,103063.71
2018-12-26T06:51:22.985Z,103059.74
2018-12-26T06:53:28.622Z,103054.00
2018-12-26T06:55:34.288Z,103061.52
2018-12-26T06:56:37.764Z,103059.31
2018-12-26T06:58:43.502Z,103060.19
2018-12-26T06:59:46.887Z,103063.29
2018-12-26T07:00:50.103Z,103060.64
2018-12-26T07:02:55.821Z,103062.86
2018-12-26T07:03:59.025Z,103059.75
2018-12-26T07:06:04.846Z,103058.88
2018-12-26T07:08:10.496Z,103061.53
2018-12-26T07:12:21.318Z,103068.17
2018-12-26T07:14:27.117Z,103073.03
2018-12-26T07:19:40.153Z,103069.06
2018-12-26T07:21:47.860Z,103073.93
2018-12-26T07:22:51.032Z,103073.93
2018-12-26T07:25:59.086Z,103076.59
2018-12-26T07:28:08.961Z,103071.75
2018-12-26T07:29:09.904Z,103068.67
2018-12-26T07:32:18.016Z,103073.97
2018-12-26T07:33:21.501Z,103070.88
2018-12-26T07:34:24.695Z,103076.19
2018-12-26T07:36:30.414Z,103075.75
2018-12-26T07:37:33.711Z,103072.66
2018-12-26T07:40:41.815Z,103078.84
2018-12-26T07:43:49.916Z,103080.17
2018-12-26T07:44:53.218Z,103078.84
2018-12-26T07:46:58.853Z,103085.47
2018-12-26T07:48:02.047Z,103087.23
2018-12-26T07:51:10.347Z,103084.59
2018-12-26T07:53:15.983Z,103086.36
2018-12-26T07:56:24.417Z,103088.56
2018-12-26T07:57:27.697Z,103080.17
2018-12-26T08:00:35.799Z,103081.94
2018-12-26T08:01:39.089Z,103084.14
2018-12-26T08:05:49.665Z,103081.94
2018-12-26T08:06:52.947Z,103085.03
2018-12-26T08:10:01.353Z,103084.59
2018-12-26T08:12:07.023Z,103083.71
2018-12-26T08:13:10.281Z,103083.71
2018-12-26T08:16:18.397Z,103082.38
2018-12-26T08:17:21.689Z,103074.43
2018-12-26T08:18:25.069Z,103080.17
2018-12-26T08:20:30.817Z,103079.73
2018-12-26T08:21:34.109Z,103077.97
2018-12-26T08:23:39.744Z,103081.94
2018-12-26T08:33:02.521Z,103094.77
2018-12-26T08:34:06.015Z,103090.80
2018-12-26T08:35:09.305Z,103094.77
2018-12-26T08:36:12.552Z,103090.34
2018-12-26T08:39:20.687Z,103094.78
2018-12-26T08:43:31.265Z,103088.58
2018-12-26T08:44:34.469Z,103090.36
2018-12-26T08:47:42.658Z,103098.76
2018-12-26T08:49:48.289Z,103100.09
2018-12-26T08:51:53.952Z,103090.36
2018-12-26T08:52:57.236Z,103088.52
2018-12-26T09:00:15.147Z,103088.22
2018-12-26T09:01:18.365Z,103084.02
2018-12-26T09:03:24.012Z,103086.08
2018-12-26T09:04:27.306Z,103090.50
2018-12-26T09:05:30.589Z,103050.78
2018-12-26T09:07:36.346Z,103084.09
2018-12-26T09:08:39.724Z,103014.67
2018-12-26T09:09:43.007Z,103083.57
2018-12-26T09:13:53.479Z,103087.30
2018-12-26T09:14:56.750Z,103085.08
2018-12-26T09:17:02.400Z,103084.16
2018-12-26T09:18:05.676Z,103088.06
2018-12-26T09:22:16.245Z,103095.04
2018-12-26T09:24:21.897Z,103092.33
2018-12-26T09:27:30.311Z,103098.08
2018-12-26T09:28:33.698Z,103093.12
2018-12-26T09:29:36.970Z,103089.34
2018-12-26T09:30:40.264Z,103095.88
2018-12-26T09:32:45.926Z,103095.34
2018-12-26T09:33:49.201Z,103097.63
2018-12-26T09:36:57.310Z,103098.82
2018-12-26T09:38:00.513Z,103094.83
2018-12-26T09:41:10.630Z,103097.11
2018-12-26T09:42:13.923Z,103094.11
2018-12-26T09:43:17.204Z,103090.67
2018-12-26T09:45:22.846Z,103091.16
2018-12-26T09:48:30.940Z,103096.66
2018-12-26T09:50:36.601Z,103090.31
2018-12-26T09:52:42.331Z,103091.96
2018-12-26T09:53:45.641Z,103096.83
2018-12-26T09:54:49.365Z,103090.16
2018-12-26T09:57:57.636Z,103094.11
2018-12-26T10:02:09.130Z,103086.55
2018-12-26T10:03:12.620Z,103092.25
2018-12-26T10:04:16.173Z,103091.37
2018-12-26T10:10:31.613Z,103089.52
2018-12-26T10:13:39.725Z,103094.41
2018-12-26T10:14:42.933Z,103094.37
2018-12-26T10:15:46.131Z,103092.14
2018-12-26T10:17:51.816Z,103091.67
2018-12-26T10:18:55.113Z,103093.91
2018-12-26T10:19:58.358Z,103095.22
2018-12-26T10:22:04.135Z,103092.25
2018-12-26T10:23:07.423Z,103090.53
2018-12-26T10:24:11.369Z,103082.55
2018-12-26T10:25:14.599Z,103088.70
2018-12-26T10:26:17.988Z,103082.42
2018-12-26T10:27:21.277Z,103082.41
2018-12-26T10:28:24.551Z,103084.28
2018-12-26T10:34:40.469Z,103082.20
2018-12-26T10:35:43.744Z,102973.49
2018-12-26T10:37:49.405Z,103085.84
2018-12-26T10:39:55.136Z,103088.02
2018-12-26T10:42:00.754Z,103085.77
2018-12-26T10:44:06.434Z,103084.89
2018-12-26T10:46:12.077Z,103091.52
2018-12-26T10:49:20.228Z,103081.27
2018-12-26T10:53:30.751Z,103076.89
2018-12-26T10:54:34.037Z,103080.87
2018-12-26T10:55:37.324Z,103086.59
2018-12-26T10:56:40.599Z,103082.60
2018-12-26T10:58:46.345Z,103077.71
2018-12-26T11:00:51.997Z,103079.04
2018-12-26T11:01:55.287Z,103075.03
2018-12-26T11:06:06.737Z,103063.22
2018-12-26T11:08:12.407Z,103058.73
2018-12-26T11:10:18.044Z,103059.97
2018-12-26T11:11:21.344Z,103055.98
2018-12-26T11:12:24.547Z,103037.28
2018-12-26T11:13:27.741Z,103056.57
2018-12-26T11:15:33.561Z,103055.20
2018-12-26T11:16:36.775Z,103054.73
2018-12-26T11:19:44.953Z,103051.61
2018-12-26T11:21:50.697Z,103041.42
2018-12-26T11:26:01.175Z,103040.12
2018-12-26T11:30:11.845Z,103032.55
2018-12-26T11:32:18.095Z,103036.13
2018-12-26T11:33:21.305Z,103033.51
2018-12-26T11:34:24.553Z,103031.75
2018-12-26T11:35:27.830Z,103037.03
2018-12-26T11:37:33.493Z,103031.23
2018-12-26T11:38:36.773Z,103024.58
2018-12-26T11:39:40.055Z,103031.66
2018-12-26T11:40:43.340Z,103026.73
2018-12-26T11:42:49.707Z,103026.36
2018-12-26T11:44:55.329Z,103024.84
2018-12-26T11:45:58.632Z,103024.84
2018-12-26T11:50:09.205Z,103025.19
2018-12-26T11:52:15.631Z,103017.64
2018-12-26T11:55:23.776Z,103023.88
2018-12-26T11:57:29.522Z,103016.83
2018-12-26T12:00:37.624Z,103013.69
2018-12-26T12:03:45.741Z,103009.80
2018-12-26T12:04:49.045Z,103011.59
2018-12-26T12:05:52.501Z,103011.11
2018-12-26T12:07:58.162Z,103007.94
2018-12-26T12:10:04.936Z,103006.19
2018-12-26T12:12:10.671Z,103010.66
2018-12-26T12:14:16.321Z,103005.80
2018-12-26T12:18:26.872Z,103001.35
2018-12-26T12:23:39.824Z,103002.25
2018-12-26T12:28:52.865Z,103000.06
2018-12-26T12:32:00.933Z,102996.98
2018-12-26T12:33:04.865Z,103003.17
2018-12-26T12:35:10.513Z,102999.66
2018-12-26T12:36:13.797Z,102996.50
2018-12-26T12:37:16.170Z,103281.52
2018-12-26T12:38:19.530Z,103005.66
2018-12-26T12:41:27.648Z,103003.91
2018-12-26T12:42:30.933Z,103007.17
2018-12-26T12:44:36.571Z,103014.25
2018-12-26T12:47:44.692Z,103008.05
2018-12-26T12:51:55.261Z,103012.53
2018-12-26T12:55:03.567Z,103001.88
2018-12-26T12:56:11.855Z,103008.07
2018-12-26T13:02:24.197Z,103009.87
2018-12-26T13:03:27.692Z,103006.44
2018-12-26T13:04:30.899Z,103012.16
2018-12-26T13:05:34.152Z,103007.30
2018-12-26T13:06:37.432Z,103007.27
2018-12-26T13:07:40.716Z,103007.34
2018-12-26T13:10:48.819Z,103012.11
2018-12-26T13:13:56.932Z,103012.08
2018-12-26T13:20:12.333Z,103010.42
2018-12-26T13:21:15.672Z,103007.77
2018-12-26T13:24:23.809Z,103007.27
2018-12-26T13:25:27.019Z,103002.75
2018-12-26T13:27:32.639Z,103014.72
2018-12-26T13:28:36.330Z,103006.29
2018-12-26T13:29:39.624Z,103013.86
2018-12-26T13:31:45.381Z,103014.72
2018-12-26T13:32:48.661Z,103012.44
2018-12-26T13:35:56.769Z,103008.07
2018-12-26T13:38:02.427Z,103002.75
2018-12-26T13:46:40.712Z,103009.41
2018-12-26T13:47:44.045Z,103007.52
2018-12-26T13:52:56.972Z,103002.25
2018-12-26T13:54:00.258Z,103006.72
2018-12-26T13:55:03.875Z,103004.38
2018-12-26T13:58:11.961Z,103000.69
2018-12-26T14:00:17.685Z,102998.59
2018-12-26T14:03:25.707Z,102999.06
2018-12-26T14:06:08.842Z,102995.27
2018-12-26T14:07:12.232Z,102991.91
2018-12-26T14:08:15.428Z,102997.44
2018-12-26T14:09:18.693Z,102999.36
2018-12-26T14:14:31.561Z,103000.02
2018-12-26T14:15:34.782Z,102997.15
2018-12-26T14:17:40.357Z,102992.81
2018-12-26T14:19:45.969Z,102996.00
2018-12-26T14:20:49.281Z,102993.66
2018-12-26T14:21:52.473Z,103002.73
2018-12-26T14:25:00.502Z,103001.89
2018-12-26T14:27:06.347Z,102993.37
2018-12-26T14:30:15.268Z,103000.14
2018-12-26T14:33:23.295Z,102998.08
2018-12-26T14:35:28.979Z,102995.41
2018-12-26T14:36:32.183Z,102997.48
2018-12-26T14:37:35.444Z,102996.13
2018-12-26T14:38:38.639Z,102993.92
2018-12-26T14:39:41.828Z,102989.12
2018-12-26T14:44:54.739Z,102989.73
2018-12-26T14:45:58.073Z,102983.62
2018-12-26T14:48:03.671Z,102987.06
2018-12-26T14:50:09.282Z,102986.53
2018-12-26T14:55:22.164Z,102981.19
2018-12-26T14:56:25.340Z,102980.30
2018-12-26T14:59:33.357Z,102979.72
2018-12-26T15:00:36.535Z,102978.78
2018-12-26T15:02:42.144Z,102985.70
2018-12-26T15:03:45.349Z,102982.15
2018-12-26T15:05:50.951Z,102983.81
2018-12-26T15:07:56.632Z,102985.48
2018-12-26T15:10:02.240Z,102984.90
2018-12-26T15:13:10.256Z,102989.59
2018-12-26T15:18:23.212Z,102989.87
2018-12-26T15:19:26.395Z,102989.81
2018-12-26T15:20:29.591Z,102994.14
2018-12-26T15:22:35.226Z,102987.55
2018-12-26T15:23:38.426Z,102983.99
2018-12-26T15:24:41.893Z,102986.59
2018-12-26T15:25:45.172Z,102980.02
2018-12-26T15:26:48.360Z,102983.05
2018-12-26T15:27:51.557Z,102984.30
2018-12-26T15:28:56.420Z,102977.36
2018-12-26T15:29:59.954Z,102984.77
2018-12-26T15:31:03.215Z,102985.59
2018-12-26T15:32:06.584Z,102981.16
2018-12-26T15:34:12.261Z,102979.42
2018-12-26T15:38:22.701Z,102981.91
2018-12-26T15:40:28.367Z,102986.23
2018-12-26T15:41:31.556Z,102983.58
2018-12-26T15:42:34.753Z,102980.91
2018-12-26T15:43:37.933Z,102984.82
2018-12-26T15:44:41.197Z,102984.82
2018-12-26T15:45:44.396Z,102976.11
2018-12-26T15:49:54.838Z,102976.45
2018-12-26T15:57:12.517Z,102969.34
2018-12-26T15:59:18.161Z,102968.91
2018-12-26T16:02:27.074Z,102969.27
2018-12-26T16:03:30.559Z,102967.97
2018-12-26T16:04:33.757Z,102962.28
2018-12-26T16:06:39.370Z,102969.69
2018-12-26T16:07:42.556Z,102968.32
2018-12-26T16:08:45.757Z,102967.44
2018-12-26T16:10:51.474Z,102967.44
2018-12-26T16:11:54.848Z,102967.38
2018-12-26T16:12:58.055Z,102966.91
2018-12-26T16:15:06.008Z,102970.81
2018-12-26T16:16:09.211Z,102969.51
2018-12-26T16:20:19.729Z,102965.16
2018-12-26T16:23:27.740Z,102956.34
2018-12-26T16:26:35.835Z,102952.02
2018-12-26T16:28:41.472Z,102959.36
2018-12-26T16:30:47.120Z,102957.95
2018-12-26T16:31:50.322Z,102956.17
2018-12-26T16:33:55.962Z,102959.25
2018-12-26T16:41:14.461Z,102953.95
2018-12-26T16:45:24.883Z,102952.18
2018-12-26T16:46:28.083Z,102950.41
2018-12-26T16:48:33.671Z,102954.73
2018-12-26T16:49:37.210Z,102952.53
2018-12-26T16:50:40.418Z,102952.53
2018-12-26T16:52:46.028Z,102958.16
2018-12-26T16:59:01.292Z,102955.48
2018-12-26T17:01:10.266Z,102949.80
2018-12-26T17:02:13.456Z,102950.20
2018-12-26T17:04:19.059Z,102954.95
2018-12-26T17:09:32.020Z,102961.40
2018-12-26T17:10:35.199Z,102962.23
2018-12-26T17:11:38.383Z,102953.94
2018-12-26T17:12:41.577Z,102960.03
2018-12-26T17:14:47.192Z,102956.55
2018-12-26T17:15:50.375Z,102954.41
2018-12-26T17:17:55.986Z,102954.35
2018-12-26T17:20:01.580Z,102960.87
2018-12-26T17:22:07.198Z,102954.77
2018-12-26T17:23:10.394Z,102945.98
2018-12-26T17:24:16.696Z,102959.06
2018-12-26T17:26:21.246Z,102949.06
2018-12-26T17:27:24.435Z,102950.77
2018-12-26T17:28:27.620Z,102950.36
2018-12-26T17:30:33.219Z,102946.05
2018-12-26T17:32:38.838Z,102939.05
2018-12-26T17:33:42.096Z,102943.38
2018-12-26T17:34:45.280Z,102939.47
2018-12-26T17:36:50.922Z,102942.91
2018-12-26T17:37:54.108Z,102948.53
2018-12-26T17:45:14.233Z,102949.30
2018-12-26T17:48:22.257Z,102948.88
2018-12-26T17:52:45.488Z,102950.93
2018-12-26T17:54:04.190Z,102950.93
2018-12-26T17:57:20.427Z,102953.53
2018-12-26T17:58:27.848Z,102947.02
2018-12-26T18:00:37.652Z,102948.33
2018-12-26T18:05:08.116Z,102948.27
2018-12-26T18:08:16.212Z,102946.02
2018-12-26T18:09:19.693Z,102947.80
2018-12-26T18:11:25.329Z,102943.83
2018-12-26T18:12:28.521Z,102944.72
2018-12-26T18:15:36.565Z,102946.43
2018-12-26T18:22:54.247Z,102945.48
2018-12-26T18:23:57.717Z,102945.07
2018-12-26T18:25:01.149Z,102949.84
2018-12-26T18:26:04.601Z,102950.25
2018-12-26T18:28:10.449Z,102949.36
2018-12-26T18:30:16.137Z,102948.95
2018-12-26T18:33:24.151Z,102941.55
2018-12-26T18:34:27.338Z,102938.83
2018-12-26T18:37:35.356Z,102944.57
2018-12-26T18:42:48.465Z,102941.44
2018-12-26T18:46:59.028Z,102937.94
2018-12-26T18:49:04.584Z,102946.17
2018-12-26T18:50:08.376Z,102939.24
2018-12-26T18:52:13.988Z,102936.99
2018-12-26T18:53:17.172Z,102941.78
2018-12-26T18:54:20.360Z,102941.38
2018-12-26T18:56:25.964Z,102938.36
2018-12-26T18:58:31.576Z,102930.48
2018-12-26T18:59:34.762Z,102929.09
2018-12-26T19:01:40.618Z,102926.55
2018-12-26T19:02:43.813Z,102927.41
2018-12-26T19:03:47.068Z,102923.06
2018-12-26T19:04:50.252Z,102920.05
2018-12-26T19:05:53.537Z,102919.16
2018-12-26T19:09:01.653Z,102923.06
2018-12-26T19:15:18.756Z,102923.00
2018-12-26T19:18:26.792Z,102928.21
2018-12-26T19:19:30.069Z,102922.94
2018-12-26T19:22:38.088Z,102924.66
2018-12-26T19:23:41.286Z,102921.64
2018-12-26T19:25:46.886Z,102926.38
2018-12-26T19:26:50.095Z,102925.55
2018-12-26T19:27:53.272Z,102926.44
2018-12-26T19:29:59.488Z,102923.77
2018-12-26T19:32:05.536Z,102918.50
2018-12-26T19:36:16.009Z,102913.30
2018-12-26T19:37:19.214Z,102917.67
2018-12-26T19:38:22.405Z,102912.00
2018-12-26T19:40:28.068Z,102907.62
2018-12-26T19:43:36.087Z,102911.11
2018-12-26T19:44:39.309Z,102905.91
2018-12-26T19:45:42.736Z,102911.11
2018-12-26T19:47:48.339Z,102906.31
2018-12-26T19:50:10.178Z,102908.03
2018-12-26T19:57:27.924Z,102910.61
2018-12-26T19:59:33.530Z,102905.81
2018-12-26T20:00:36.704Z,102908.42
2018-12-26T20:03:44.733Z,102906.64
2018-12-26T20:04:47.928Z,102906.64
2018-12-26T20:07:55.979Z,102900.08
2018-12-26T20:08:59.172Z,102897.95
2018-12-26T20:13:09.740Z,102892.27
2018-12-26T20:14:12.926Z,102889.66
2018-12-26T20:15:16.132Z,102896.17
2018-12-26T20:17:21.837Z,102897.89
2018-12-26T20:19:27.873Z,102893.51
2018-12-26T20:20:31.171Z,102895.28
2018-12-26T20:21:34.646Z,102898.30
2018-12-26T20:22:37.797Z,102893.57
2018-12-26T20:23:40.993Z,102897.00
2018-12-26T20:24:44.187Z,102894.81
2018-12-26T20:27:52.448Z,102894.75
2018-12-26T20:28:55.635Z,102891.32
2018-12-26T20:32:03.659Z,102888.24
2018-12-26T20:33:06.862Z,102889.12
2018-12-26T20:34:10.050Z,102883.04
2018-12-26T20:37:18.318Z,102876.50
2018-12-26T20:39:24.024Z,102877.75
2018-12-26T20:43:34.465Z,102885.20
2018-12-26T20:49:49.806Z,102878.58
2018-12-26T20:52:02.099Z,102871.59
2018-12-26T20:54:07.845Z,102875.44
2018-12-26T20:56:13.436Z,102877.98
2018-12-26T20:57:16.623Z,102865.44
2018-12-26T20:58:19.825Z,102871.48
2018-12-26T20:59:23.123Z,102867.98
2018-12-26T21:01:28.728Z,102877.16
2018-12-26T21:05:39.168Z,102868.84
2018-12-26T21:07:44.784Z,102859.29
2018-12-26T21:08:48.070Z,102863.20
2018-12-26T21:09:51.261Z,102864.97
2018-12-26T21:12:59.359Z,102860.56
2018-12-26T21:15:05.703Z,102861.87
2018-12-26T21:17:11.325Z,102857.97
2018-12-26T21:18:14.846Z,102854.89
2018-12-26T21:19:18.041Z,102861.39
2018-12-26T21:24:30.889Z,102854.00
2018-12-26T21:29:43.977Z,102854.83
2018-12-26T21:30:47.573Z,102852.64
2018-12-26T21:32:53.549Z,102848.68
2018-12-26T21:33:57.029Z,102844.36
2018-12-26T21:35:00.267Z,102848.27
2018-12-26T21:37:06.048Z,102848.68
2018-12-26T21:39:11.658Z,102842.17
2018-12-26T21:45:26.941Z,102839.92
2018-12-26T21:46:30.137Z,102839.92
2018-12-26T21:47:33.320Z,102837.77
2018-12-26T21:51:43.761Z,102830.31
2018-12-26T21:55:54.207Z,102838.19
2018-12-26T21:56:57.391Z,102835.58
2018-12-26T21:59:03.006Z,102839.48
2018-12-26T22:00:07.845Z,102839.48
2018-12-26T22:02:13.456Z,102840.25
2018-12-26T22:04:19.059Z,102836.35
2018-12-26T22:05:22.249Z,102836.77
2018-12-26T22:08:30.277Z,102833.69
2018-12-26T22:09:33.465Z,102832.80
2018-12-26T22:10:36.658Z,102833.69
2018-12-26T22:12:42.257Z,102833.63
2018-12-26T22:13:45.444Z,102828.42
2018-12-26T22:14:48.645Z,102837.53
2018-12-26T22:16:54.270Z,102834.52
2018-12-26T22:20:02.295Z,102822.33
2018-12-26T22:23:10.315Z,102825.77
2018-12-26T22:24:13.540Z,102825.77
2018-12-26T22:25:17.007Z,102827.54
2018-12-26T22:26:20.232Z,102834.02
2018-12-26T22:27:23.422Z,102833.13
2018-12-26T22:28:26.621Z,102834.42
2018-12-26T22:29:29.805Z,102830.52
2018-12-26T22:36:47.481Z,102829.17
2018-12-26T22:38:53.120Z,102824.73
2018-12-26T22:42:01.145Z,102822.13
2018-12-26T22:46:11.615Z,102827.27
2018-12-26T22:48:17.195Z,102825.08
2018-12-26T22:50:22.805Z,102820.35
2018-12-26T22:52:28.407Z,102828.16
2018-12-26T22:53:31.600Z,102815.50
2018-12-26T22:54:34.805Z,102822.06
2018-12-26T22:55:37.988Z,102815.98
2018-12-26T22:57:43.607Z,102818.58
2018-12-26T22:58:46.779Z,102823.78
2018-12-26T22:59:49.992Z,102815.98
2018-12-26T23:00:53.188Z,102821.18
2018-12-26T23:02:58.803Z,102822.48
2018-12-26T23:08:11.957Z,102818.97
2018-12-26T23:13:24.799Z,102821.92
2018-12-26T23:14:27.992Z,102822.39
2018-12-26T23:16:33.603Z,102820.20
2018-12-26T23:17:36.797Z,102818.02
2018-12-26T23:18:39.992Z,102820.63
2018-12-26T23:20:45.615Z,102824.11
2018-12-26T23:21:49.065Z,102819.32
2018-12-26T23:24:57.093Z,102818.78
2018-12-26T23:26:00.530Z,102823.58
2018-12-26T23:29:08.580Z,102813.11
2018-12-26T23:36:26.261Z,102817.84
2018-12-26T23:37:29.443Z,102810.92
2018-12-26T23:38:32.657Z,102804.36
2018-12-26T23:40:38.256Z,102807.44
2018-12-26T23:47:55.952Z,102793.93
2018-12-26T23:48:59.165Z,102789.55
2018-12-26T23:51:05.304Z,102793.88
2018-12-26T23:53:10.913Z,102783.82
2018-12-26T23:54:14.115Z,102791.21
2018-12-26T23:55:17.381Z,102791.21
2018-12-26T23:59:27.811Z,102782.94
